Chimbu Airport


Codes: AYCH/CMU
Name: Chimbu Airport
City: Kundiawa
Country: Papua New Guinea
Elevation: 4974 ft.
Wikipedia:

Photos at Chimbu Airport


   Photos courtesy of SpottingLog. You can add your own sightings and photos by signing up for a free trial today.



No photos found.

Weather at Chimbu Airport


Time (UTC)DescriptionTempratureWindCloud coverageVisibilityPressureHumidity
17-Jun-2024 06:00Light Rain23°C4 mph, S50%10000m1012hPa66%
17-Jun-2024 09:00Light Rain19°C2 mph, S46%10000m1015hPa86%
17-Jun-2024 12:00Scattered Clouds16°C2 mph, E48%10000m1018hPa97%
17-Jun-2024 15:00Scattered Clouds16°C0 mph, NE38%10000m1017hPa98%
17-Jun-2024 18:00Broken Clouds16°C0 mph, NE66%10000m1016hPa98%
17-Jun-2024 21:00Overcast Clouds16°C2 mph, E96%10000m1017hPa97%
18-Jun-2024 00:00Overcast Clouds23°C2 mph, S86%10000m1015hPa65%
18-Jun-2024 03:00Light Rain25°C2 mph, S55%10000m1011hPa57%
18-Jun-2024 06:00Light Rain20°C2 mph, SW76%10000m1011hPa88%
18-Jun-2024 09:00Light Rain18°C2 mph, SE80%10000m1014hPa96%
18-Jun-2024 12:00Light Rain17°C2 mph, SE77%9707m1016hPa99%
18-Jun-2024 15:00Light Rain17°C0 mph, SE97%10000m1015hPa98%
18-Jun-2024 18:00Light Rain17°C2 mph, E95%10000m1014hPa98%
18-Jun-2024 21:00Light Rain17°C2 mph, SE100%10000m1016hPa97%
19-Jun-2024 00:00Light Rain20°C2 mph, S100%10000m1015hPa84%
19-Jun-2024 03:00Light Rain23°C4 mph, S100%10000m1012hPa68%
19-Jun-2024 06:00Light Rain20°C2 mph, S100%10000m1011hPa88%
19-Jun-2024 09:00Light Rain17°C2 mph, S100%4481m1014hPa99%
19-Jun-2024 12:00Light Rain17°C2 mph, N100%0m1016hPa100%
19-Jun-2024 15:00Overcast Clouds17°C2 mph, SE100%10000m1014hPa98%
19-Jun-2024 18:00Overcast Clouds16°C2 mph, SE100%10000m1014hPa97%
19-Jun-2024 21:00Overcast Clouds16°C2 mph, SE100%10000m1016hPa98%
20-Jun-2024 00:00Overcast Clouds20°C4 mph, S100%10000m1015hPa76%
20-Jun-2024 03:00Light Rain23°C4 mph, S80%10000m1011hPa66%
20-Jun-2024 06:00Light Rain20°C2 mph, S89%9328m1011hPa91%
20-Jun-2024 09:00Light Rain18°C2 mph, S100%4000m1014hPa99%
20-Jun-2024 12:00Light Rain17°C2 mph, S100%392m1016hPa99%
20-Jun-2024 15:00Light Rain16°C2 mph, S96%908m1015hPa99%
20-Jun-2024 18:00Overcast Clouds16°C2 mph, SE98%4431m1014hPa99%
20-Jun-2024 21:00Overcast Clouds16°C2 mph, SE100%10000m1016hPa98%
21-Jun-2024 00:00Overcast Clouds21°C2 mph, S99%10000m1015hPa79%
21-Jun-2024 03:00Light Rain23°C4 mph, S85%10000m1011hPa68%
21-Jun-2024 06:00Light Rain20°C2 mph, S92%4361m1012hPa93%
21-Jun-2024 09:00Light Rain18°C2 mph, SE100%903m1015hPa99%
21-Jun-2024 12:00Light Rain17°C2 mph, SE100%493m1017hPa100%
21-Jun-2024 15:00Overcast Clouds17°C0 mph, SE100%10000m1016hPa98%
21-Jun-2024 18:00Overcast Clouds17°C0 mph, E100%10000m1016hPa98%
21-Jun-2024 21:00Overcast Clouds16°C2 mph, E98%10000m1017hPa97%
22-Jun-2024 00:00Overcast Clouds22°C2 mph, SE99%10000m1015hPa73%
22-Jun-2024 03:00Light Rain25°C2 mph, SE99%10000m1011hPa59%